sensor_id;sensor_type;location;lat;lon;timestamp;P1;durP1;ratioP1;P2;durP2;ratioP2
25535;SDS011;13431;51.352;6.412;2022-12-31T00:02:26;0.70;;;0.70;;
25535;SDS011;13431;51.352;6.412;2022-12-31T00:04:54;1.05;;;0.85;;
25535;SDS011;13431;51.352;6.412;2022-12-31T00:07:21;0.77;;;0.77;;
25535;SDS011;13431;51.352;6.412;2022-12-31T00:09:48;0.50;;;0.50;;
25535;SDS011;13431;51.352;6.412;2022-12-31T00:12:16;0.95;;;0.70;;
25535;SDS011;13431;51.352;6.412;2022-12-31T00:14:43;0.50;;;0.50;;
25535;SDS011;13431;51.352;6.412;2022-12-31T00:17:10;1.08;;;0.70;;
25535;SDS011;13431;51.352;6.412;2022-12-31T00:19:38;0.40;;;0.40;;
25535;SDS011;13431;51.352;6.412;2022-12-31T00:22:05;1.02;;;0.93;;
25535;SDS011;13431;51.352;6.412;2022-12-31T00:24:32;0.75;;;0.75;;
25535;SDS011;13431;51.352;6.412;2022-12-31T00:27:01;0.55;;;0.55;;
25535;SDS011;13431;51.352;6.412;2022-12-31T00:29:28;0.82;;;0.80;;
25535;SDS011;13431;51.352;6.412;2022-12-31T00:31:56;0.60;;;0.60;;
25535;SDS011;13431;51.352;6.412;2022-12-31T00:34:23;0.70;;;0.70;;
25535;SDS011;13431;51.352;6.412;2022-12-31T00:36:51;1.80;;;0.50;;
25535;SDS011;13431;51.352;6.412;2022-12-31T00:39:18;0.50;;;0.50;;
25535;SDS011;13431;51.352;6.412;2022-12-31T00:41:45;0.68;;;0.60;;
25535;SDS011;13431;51.352;6.412;2022-12-31T00:44:13;0.60;;;0.60;;
25535;SDS011;13431;51.352;6.412;2022-12-31T00:46:40;0.55;;;0.50;;
25535;SDS011;13431;51.352;6.412;2022-12-31T00:49:06;1.27;;;0.60;;
25535;SDS011;13431;51.352;6.412;2022-12-31T00:51:34;1.10;;;0.60;;
25535;SDS011;13431;51.352;6.412;2022-12-31T00:54:02;0.80;;;0.50;;
25535;SDS011;13431;51.352;6.412;2022-12-31T00:56:30;0.50;;;0.50;;
25535;SDS011;13431;51.352;6.412;2022-12-31T00:58:58;0.57;;;0.50;;
25535;SDS011;13431;51.352;6.412;2022-12-31T01:01:30;3.05;;;0.90;;
25535;SDS011;13431;51.352;6.412;2022-12-31T01:04:04;1.08;;;0.60;;
25535;SDS011;13431;51.352;6.412;2022-12-31T01:06:34;0.40;;;0.40;;
25535;SDS011;13431;51.352;6.412;2022-12-31T01:09:01;0.50;;;0.50;;
25535;SDS011;13431;51.352;6.412;2022-12-31T01:11:29;0.65;;;0.40;;
25535;SDS011;13431;51.352;6.412;2022-12-31T01:14:04;0.57;;;0.52;;
25535;SDS011;13431;51.352;6.412;2022-12-31T01:16:39;0.40;;;0.40;;
25535;SDS011;13431;51.352;6.412;2022-12-31T01:19:12;0.40;;;0.40;;
25535;SDS011;13431;51.352;6.412;2022-12-31T01:21:42;0.60;;;0.30;;
25535;SDS011;13431;51.352;6.412;2022-12-31T01:24:10;0.40;;;0.40;;
25535;SDS011;13431;51.352;6.412;2022-12-31T01:26:38;1.27;;;0.40;;
25535;SDS011;13431;51.352;6.412;2022-12-31T01:29:07;0.80;;;0.40;;
25535;SDS011;13431;51.352;6.412;2022-12-31T01:31:36;0.40;;;0.40;;
25535;SDS011;13431;51.352;6.412;2022-12-31T01:34:04;0.40;;;0.40;;
25535;SDS011;13431;51.352;6.412;2022-12-31T01:36:47;1.70;;;0.40;;
25535;SDS011;13431;51.352;6.412;2022-12-31T01:41:18;0.40;;;0.40;;
25535;SDS011;13431;51.352;6.412;2022-12-31T01:43:50;0.73;;;0.50;;
25535;SDS011;13431;51.352;6.412;2022-12-31T01:51:39;0.85;;;0.50;;
25535;SDS011;13431;51.352;6.412;2022-12-31T01:54:08;0.30;;;0.30;;
25535;SDS011;13431;51.352;6.412;2022-12-31T01:56:38;0.40;;;0.40;;
25535;SDS011;13431;51.352;6.412;2022-12-31T01:59:07;0.52;;;0.40;;
25535;SDS011;13431;51.352;6.412;2022-12-31T02:04:12;0.30;;;0.30;;
25535;SDS011;13431;51.352;6.412;2022-12-31T02:06:43;0.40;;;0.40;;
25535;SDS011;13431;51.352;6.412;2022-12-31T02:09:13;0.40;;;0.40;;
25535;SDS011;13431;51.352;6.412;2022-12-31T02:11:41;0.40;;;0.40;;
25535;SDS011;13431;51.352;6.412;2022-12-31T02:14:13;0.40;;;0.40;;
25535;SDS011;13431;51.352;6.412;2022-12-31T02:16:49;0.43;;;0.43;;
25535;SDS011;13431;51.352;6.412;2022-12-31T02:19:34;0.30;;;0.30;;
25535;SDS011;13431;51.352;6.412;2022-12-31T02:28:15;0.43;;;0.40;;
25535;SDS011;13431;51.352;6.412;2022-12-31T02:31:25;1.10;;;0.35;;
25535;SDS011;13431;51.352;6.412;2022-12-31T02:36:29;0.40;;;0.40;;
25535;SDS011;13431;51.352;6.412;2022-12-31T02:39:02;0.50;;;0.50;;
25535;SDS011;13431;51.352;6.412;2022-12-31T02:41:31;0.30;;;0.30;;
25535;SDS011;13431;51.352;6.412;2022-12-31T02:44:21;0.55;;;0.40;;
25535;SDS011;13431;51.352;6.412;2022-12-31T02:55:44;0.45;;;0.40;;
25535;SDS011;13431;51.352;6.412;2022-12-31T02:58:24;1.10;;;0.57;;
25535;SDS011;13431;51.352;6.412;2022-12-31T03:01:26;0.95;;;0.50;;
25535;SDS011;13431;51.352;6.412;2022-12-31T03:04:16;0.40;;;0.40;;
25535;SDS011;13431;51.352;6.412;2022-12-31T03:09:30;0.30;;;0.30;;
25535;SDS011;13431;51.352;6.412;2022-12-31T03:11:58;2.17;;;0.40;;
25535;SDS011;13431;51.352;6.412;2022-12-31T03:14:46;0.70;;;0.45;;
25535;SDS011;13431;51.352;6.412;2022-12-31T03:17:13;0.40;;;0.40;;
25535;SDS011;13431;51.352;6.412;2022-12-31T03:19:41;0.40;;;0.40;;
25535;SDS011;13431;51.352;6.412;2022-12-31T03:22:27;0.50;;;0.50;;
25535;SDS011;13431;51.352;6.412;2022-12-31T03:24:59;0.40;;;0.40;;
25535;SDS011;13431;51.352;6.412;2022-12-31T03:27:51;0.60;;;0.60;;
25535;SDS011;13431;51.352;6.412;2022-12-31T03:30:19;1.42;;;0.50;;
25535;SDS011;13431;51.352;6.412;2022-12-31T03:32:48;0.45;;;0.45;;
25535;SDS011;13431;51.352;6.412;2022-12-31T03:35:17;0.82;;;0.82;;
25535;SDS011;13431;51.352;6.412;2022-12-31T03:37:47;0.50;;;0.50;;
25535;SDS011;13431;51.352;6.412;2022-12-31T03:40:15;0.50;;;0.45;;
25535;SDS011;13431;51.352;6.412;2022-12-31T03:42:44;0.65;;;0.60;;
25535;SDS011;13431;51.352;6.412;2022-12-31T03:45:11;2.03;;;0.50;;
25535;SDS011;13431;51.352;6.412;2022-12-31T03:47:39;0.50;;;0.50;;
25535;SDS011;13431;51.352;6.412;2022-12-31T03:50:08;2.45;;;0.60;;
25535;SDS011;13431;51.352;6.412;2022-12-31T03:52:37;1.13;;;0.70;;
25535;SDS011;13431;51.352;6.412;2022-12-31T03:55:05;0.50;;;0.50;;
25535;SDS011;13431;51.352;6.412;2022-12-31T03:57:33;1.27;;;0.73;;
25535;SDS011;13431;51.352;6.412;2022-12-31T04:00:02;0.70;;;0.63;;
25535;SDS011;13431;51.352;6.412;2022-12-31T04:02:34;0.40;;;0.40;;
25535;SDS011;13431;51.352;6.412;2022-12-31T04:05:01;0.50;;;0.50;;
25535;SDS011;13431;51.352;6.412;2022-12-31T04:07:29;2.40;;;0.90;;
25535;SDS011;13431;51.352;6.412;2022-12-31T04:09:56;0.30;;;0.30;;
25535;SDS011;13431;51.352;6.412;2022-12-31T04:12:23;0.98;;;0.63;;
25535;SDS011;13431;51.352;6.412;2022-12-31T04:14:51;0.80;;;0.40;;
25535;SDS011;13431;51.352;6.412;2022-12-31T04:17:18;0.75;;;0.40;;
25535;SDS011;13431;51.352;6.412;2022-12-31T04:19:45;1.20;;;0.60;;
25535;SDS011;13431;51.352;6.412;2022-12-31T04:22:13;1.65;;;0.70;;
25535;SDS011;13431;51.352;6.412;2022-12-31T04:24:41;0.80;;;0.80;;
25535;SDS011;13431;51.352;6.412;2022-12-31T04:27:09;2.05;;;1.33;;
25535;SDS011;13431;51.352;6.412;2022-12-31T04:29:37;0.93;;;0.70;;
25535;SDS011;13431;51.352;6.412;2022-12-31T04:32:05;1.88;;;0.90;;
25535;SDS011;13431;51.352;6.412;2022-12-31T04:34:33;0.93;;;0.50;;
25535;SDS011;13431;51.352;6.412;2022-12-31T04:37:01;2.13;;;0.70;;
25535;SDS011;13431;51.352;6.412;2022-12-31T04:39:29;0.68;;;0.60;;
25535;SDS011;13431;51.352;6.412;2022-12-31T04:41:56;1.05;;;0.60;;
25535;SDS011;13431;51.352;6.412;2022-12-31T04:44:23;1.13;;;0.65;;
25535;SDS011;13431;51.352;6.412;2022-12-31T04:46:50;0.40;;;0.40;;
25535;SDS011;13431;51.352;6.412;2022-12-31T04:49:19;0.88;;;0.57;;
25535;SDS011;13431;51.352;6.412;2022-12-31T04:51:47;1.95;;;0.80;;
25535;SDS011;13431;51.352;6.412;2022-12-31T04:54:14;2.33;;;0.85;;
25535;SDS011;13431;51.352;6.412;2022-12-31T04:56:41;0.95;;;0.85;;
25535;SDS011;13431;51.352;6.412;2022-12-31T04:59:09;1.00;;;0.70;;
25535;SDS011;13431;51.352;6.412;2022-12-31T05:01:37;1.05;;;0.60;;
25535;SDS011;13431;51.352;6.412;2022-12-31T05:04:05;2.50;;;0.95;;
25535;SDS011;13431;51.352;6.412;2022-12-31T05:06:32;1.45;;;0.50;;
25535;SDS011;13431;51.352;6.412;2022-12-31T05:09:00;1.55;;;0.80;;
25535;SDS011;13431;51.352;6.412;2022-12-31T05:11:27;1.40;;;0.68;;
25535;SDS011;13431;51.352;6.412;2022-12-31T05:13:54;1.20;;;0.50;;
25535;SDS011;13431;51.352;6.412;2022-12-31T05:16:22;0.60;;;0.60;;
25535;SDS011;13431;51.352;6.412;2022-12-31T05:18:49;2.13;;;0.63;;
25535;SDS011;13431;51.352;6.412;2022-12-31T05:21:18;1.80;;;0.63;;
25535;SDS011;13431;51.352;6.412;2022-12-31T05:23:47;0.95;;;0.60;;
25535;SDS011;13431;51.352;6.412;2022-12-31T05:26:15;2.30;;;0.90;;
25535;SDS011;13431;51.352;6.412;2022-12-31T05:28:43;0.88;;;0.50;;
25535;SDS011;13431;51.352;6.412;2022-12-31T05:31:10;1.75;;;0.77;;
25535;SDS011;13431;51.352;6.412;2022-12-31T05:33:39;3.03;;;0.75;;
25535;SDS011;13431;51.352;6.412;2022-12-31T05:36:06;2.05;;;1.00;;
25535;SDS011;13431;51.352;6.412;2022-12-31T05:38:33;1.55;;;0.68;;
25535;SDS011;13431;51.352;6.412;2022-12-31T05:41:03;1.40;;;0.82;;
25535;SDS011;13431;51.352;6.412;2022-12-31T05:43:32;1.13;;;0.70;;
25535;SDS011;13431;51.352;6.412;2022-12-31T05:46:00;1.40;;;0.52;;
25535;SDS011;13431;51.352;6.412;2022-12-31T05:48:29;1.50;;;0.75;;
25535;SDS011;13431;51.352;6.412;2022-12-31T05:50:57;2.28;;;1.02;;
25535;SDS011;13431;51.352;6.412;2022-12-31T05:53:25;2.45;;;0.88;;
25535;SDS011;13431;51.352;6.412;2022-12-31T05:55:52;0.57;;;0.50;;
25535;SDS011;13431;51.352;6.412;2022-12-31T05:58:19;2.53;;;0.90;;
25535;SDS011;13431;51.352;6.412;2022-12-31T06:00:46;1.15;;;0.60;;
25535;SDS011;13431;51.352;6.412;2022-12-31T06:03:14;1.58;;;0.60;;
25535;SDS011;13431;51.352;6.412;2022-12-31T06:05:41;2.40;;;0.60;;
25535;SDS011;13431;51.352;6.412;2022-12-31T06:08:09;3.10;;;0.68;;
25535;SDS011;13431;51.352;6.412;2022-12-31T06:10:38;2.00;;;0.60;;
25535;SDS011;13431;51.352;6.412;2022-12-31T06:13:06;1.63;;;0.65;;
25535;SDS011;13431;51.352;6.412;2022-12-31T06:15:38;1.98;;;0.90;;
25535;SDS011;13431;51.352;6.412;2022-12-31T06:18:06;0.63;;;0.60;;
25535;SDS011;13431;51.352;6.412;2022-12-31T06:20:36;0.80;;;0.63;;
25535;SDS011;13431;51.352;6.412;2022-12-31T06:23:03;3.28;;;1.00;;
25535;SDS011;13431;51.352;6.412;2022-12-31T06:25:33;1.25;;;0.73;;
25535;SDS011;13431;51.352;6.412;2022-12-31T06:28:00;1.30;;;0.70;;
25535;SDS011;13431;51.352;6.412;2022-12-31T06:30:28;2.40;;;1.70;;
25535;SDS011;13431;51.352;6.412;2022-12-31T06:32:55;5.20;;;0.80;;
25535;SDS011;13431;51.352;6.412;2022-12-31T06:35:22;0.95;;;0.65;;
25535;SDS011;13431;51.352;6.412;2022-12-31T06:37:50;1.88;;;0.70;;
25535;SDS011;13431;51.352;6.412;2022-12-31T06:40:17;1.88;;;0.90;;
25535;SDS011;13431;51.352;6.412;2022-12-31T06:42:45;1.33;;;0.77;;
25535;SDS011;13431;51.352;6.412;2022-12-31T06:45:12;2.00;;;0.95;;
25535;SDS011;13431;51.352;6.412;2022-12-31T06:47:40;1.45;;;0.80;;
25535;SDS011;13431;51.352;6.412;2022-12-31T06:50:07;5.13;;;1.10;;
25535;SDS011;13431;51.352;6.412;2022-12-31T06:52:35;4.00;;;1.58;;
25535;SDS011;13431;51.352;6.412;2022-12-31T06:55:02;1.33;;;0.77;;
25535;SDS011;13431;51.352;6.412;2022-12-31T06:57:30;3.28;;;0.95;;
25535;SDS011;13431;51.352;6.412;2022-12-31T06:59:58;0.75;;;0.70;;
25535;SDS011;13431;51.352;6.412;2022-12-31T07:05:12;1.05;;;0.75;;
25535;SDS011;13431;51.352;6.412;2022-12-31T07:13:10;2.97;;;0.82;;
25535;SDS011;13431;51.352;6.412;2022-12-31T07:21:22;1.10;;;0.82;;
25535;SDS011;13431;51.352;6.412;2022-12-31T07:23:59;2.33;;;0.90;;
25535;SDS011;13431;51.352;6.412;2022-12-31T07:29:06;1.73;;;0.80;;
25535;SDS011;13431;51.352;6.412;2022-12-31T07:37:39;1.98;;;0.80;;
25535;SDS011;13431;51.352;6.412;2022-12-31T07:40:13;0.93;;;0.80;;
25535;SDS011;13431;51.352;6.412;2022-12-31T07:45:47;2.92;;;1.10;;
25535;SDS011;13431;51.352;6.412;2022-12-31T07:48:25;0.93;;;0.88;;
25535;SDS011;13431;51.352;6.412;2022-12-31T07:50:54;2.90;;;1.17;;
25535;SDS011;13431;51.352;6.412;2022-12-31T07:53:23;1.55;;;1.27;;
25535;SDS011;13431;51.352;6.412;2022-12-31T07:55:55;3.17;;;1.00;;
25535;SDS011;13431;51.352;6.412;2022-12-31T07:58:30;1.00;;;0.90;;
25535;SDS011;13431;51.352;6.412;2022-12-31T08:01:11;1.95;;;0.90;;
25535;SDS011;13431;51.352;6.412;2022-12-31T08:09:46;2.15;;;0.88;;
25535;SDS011;13431;51.352;6.412;2022-12-31T08:12:43;2.17;;;1.02;;
25535;SDS011;13431;51.352;6.412;2022-12-31T08:15:13;1.13;;;0.70;;
25535;SDS011;13431;51.352;6.412;2022-12-31T08:17:42;1.60;;;0.80;;
25535;SDS011;13431;51.352;6.412;2022-12-31T08:20:13;1.20;;;0.80;;
25535;SDS011;13431;51.352;6.412;2022-12-31T08:22:57;2.72;;;0.73;;
25535;SDS011;13431;51.352;6.412;2022-12-31T08:28:19;1.13;;;0.80;;
25535;SDS011;13431;51.352;6.412;2022-12-31T08:30:53;3.60;;;0.75;;
25535;SDS011;13431;51.352;6.412;2022-12-31T08:33:29;2.25;;;0.90;;
25535;SDS011;13431;51.352;6.412;2022-12-31T08:36:10;2.05;;;1.15;;
25535;SDS011;13431;51.352;6.412;2022-12-31T08:41:50;1.95;;;0.88;;
25535;SDS011;13431;51.352;6.412;2022-12-31T08:48:00;2.17;;;0.65;;
25535;SDS011;13431;51.352;6.412;2022-12-31T08:50:12;10.52;;;1.20;;
25535;SDS011;13431;51.352;6.412;2022-12-31T08:52:41;2.20;;;0.95;;
25535;SDS011;13431;51.352;6.412;2022-12-31T08:55:13;4.47;;;1.15;;
25535;SDS011;13431;51.352;6.412;2022-12-31T09:00:43;3.72;;;0.90;;
25535;SDS011;13431;51.352;6.412;2022-12-31T09:03:15;2.10;;;0.77;;
25535;SDS011;13431;51.352;6.412;2022-12-31T09:08:50;2.63;;;0.90;;
25535;SDS011;13431;51.352;6.412;2022-12-31T09:17:51;1.35;;;0.90;;
25535;SDS011;13431;51.352;6.412;2022-12-31T09:20:14;1.48;;;0.90;;
25535;SDS011;13431;51.352;6.412;2022-12-31T09:22:48;3.88;;;1.00;;
25535;SDS011;13431;51.352;6.412;2022-12-31T09:25:17;2.45;;;1.00;;
25535;SDS011;13431;51.352;6.412;2022-12-31T09:30:43;3.90;;;1.00;;
25535;SDS011;13431;51.352;6.412;2022-12-31T09:35:53;2.58;;;1.55;;
25535;SDS011;13431;51.352;6.412;2022-12-31T09:41:11;2.20;;;1.00;;
25535;SDS011;13431;51.352;6.412;2022-12-31T10:00:51;1.35;;;0.88;;
25535;SDS011;13431;51.352;6.412;2022-12-31T10:06:04;2.53;;;1.23;;
25535;SDS011;13431;51.352;6.412;2022-12-31T10:14:27;2.55;;;1.17;;
25535;SDS011;13431;51.352;6.412;2022-12-31T10:28:30;4.68;;;1.20;;
25535;SDS011;13431;51.352;6.412;2022-12-31T10:39:42;3.08;;;1.50;;
25535;SDS011;13431;51.352;6.412;2022-12-31T10:51:16;3.38;;;1.40;;
25535;SDS011;13431;51.352;6.412;2022-12-31T10:57:15;2.05;;;1.00;;
25535;SDS011;13431;51.352;6.412;2022-12-31T11:00:07;3.80;;;1.10;;
25535;SDS011;13431;51.352;6.412;2022-12-31T11:17:15;2.03;;;1.25;;
25535;SDS011;13431;51.352;6.412;2022-12-31T11:42:40;2.67;;;1.20;;
25535;SDS011;13431;51.352;6.412;2022-12-31T11:54:13;4.47;;;1.30;;
25535;SDS011;13431;51.352;6.412;2022-12-31T11:56:52;1.67;;;1.38;;
25535;SDS011;13431;51.352;6.412;2022-12-31T11:59:31;5.03;;;2.20;;
25535;SDS011;13431;51.352;6.412;2022-12-31T12:04:27;2.13;;;1.10;;
25535;SDS011;13431;51.352;6.412;2022-12-31T12:06:55;7.32;;;1.30;;
25535;SDS011;13431;51.352;6.412;2022-12-31T12:09:30;2.97;;;1.60;;
25535;SDS011;13431;51.352;6.412;2022-12-31T12:12:01;5.68;;;2.05;;
25535;SDS011;13431;51.352;6.412;2022-12-31T12:14:39;3.33;;;1.33;;
25535;SDS011;13431;51.352;6.412;2022-12-31T12:17:17;4.05;;;1.48;;
25535;SDS011;13431;51.352;6.412;2022-12-31T12:20:12;2.05;;;1.15;;
25535;SDS011;13431;51.352;6.412;2022-12-31T12:22:49;4.38;;;1.15;;
25535;SDS011;13431;51.352;6.412;2022-12-31T12:25:20;4.38;;;1.95;;
25535;SDS011;13431;51.352;6.412;2022-12-31T12:27:49;3.92;;;1.60;;
25535;SDS011;13431;51.352;6.412;2022-12-31T12:32:59;4.22;;;1.77;;
25535;SDS011;13431;51.352;6.412;2022-12-31T12:35:31;3.05;;;1.50;;
25535;SDS011;13431;51.352;6.412;2022-12-31T12:38:02;3.38;;;1.40;;
25535;SDS011;13431;51.352;6.412;2022-12-31T12:40:32;4.18;;;1.58;;
25535;SDS011;13431;51.352;6.412;2022-12-31T12:43:01;3.33;;;1.30;;
25535;SDS011;13431;51.352;6.412;2022-12-31T12:45:35;3.00;;;1.73;;
25535;SDS011;13431;51.352;6.412;2022-12-31T12:48:18;5.82;;;1.83;;
25535;SDS011;13431;51.352;6.412;2022-12-31T12:50:56;2.00;;;1.50;;
25535;SDS011;13431;51.352;6.412;2022-12-31T12:59:01;2.42;;;1.10;;
25535;SDS011;13431;51.352;6.412;2022-12-31T13:01:59;3.72;;;1.35;;
25535;SDS011;13431;51.352;6.412;2022-12-31T13:05:07;2.05;;;1.20;;
25535;SDS011;13431;51.352;6.412;2022-12-31T13:16:30;2.55;;;1.63;;
25535;SDS011;13431;51.352;6.412;2022-12-31T13:21:57;3.88;;;1.40;;
25535;SDS011;13431;51.352;6.412;2022-12-31T13:24:50;6.50;;;1.90;;
25535;SDS011;13431;51.352;6.412;2022-12-31T13:27:32;5.53;;;1.30;;
25535;SDS011;13431;51.352;6.412;2022-12-31T13:30:21;3.20;;;1.42;;
25535;SDS011;13431;51.352;6.412;2022-12-31T13:32:58;4.93;;;1.92;;
25535;SDS011;13431;51.352;6.412;2022-12-31T13:41:05;3.38;;;1.40;;
25535;SDS011;13431;51.352;6.412;2022-12-31T13:51:47;2.13;;;1.50;;
25535;SDS011;13431;51.352;6.412;2022-12-31T13:59:58;6.07;;;2.35;;
25535;SDS011;13431;51.352;6.412;2022-12-31T14:02:39;3.50;;;1.15;;
25535;SDS011;13431;51.352;6.412;2022-12-31T14:05:22;3.95;;;1.60;;
25535;SDS011;13431;51.352;6.412;2022-12-31T14:08:03;3.90;;;1.48;;
25535;SDS011;13431;51.352;6.412;2022-12-31T14:10:39;4.43;;;1.42;;
25535;SDS011;13431;51.352;6.412;2022-12-31T14:16:21;6.88;;;2.35;;
25535;SDS011;13431;51.352;6.412;2022-12-31T14:21:59;3.58;;;1.60;;
25535;SDS011;13431;51.352;6.412;2022-12-31T14:24:46;5.10;;;1.92;;
25535;SDS011;13431;51.352;6.412;2022-12-31T14:27:18;5.65;;;1.73;;
25535;SDS011;13431;51.352;6.412;2022-12-31T14:30:03;4.70;;;2.22;;
25535;SDS011;13431;51.352;6.412;2022-12-31T14:35:51;4.97;;;2.90;;
25535;SDS011;13431;51.352;6.412;2022-12-31T14:41:49;2.58;;;1.80;;
25535;SDS011;13431;51.352;6.412;2022-12-31T14:47:04;5.18;;;2.50;;
25535;SDS011;13431;51.352;6.412;2022-12-31T14:52:48;7.18;;;2.70;;
25535;SDS011;13431;51.352;6.412;2022-12-31T14:57:59;7.50;;;2.45;;
25535;SDS011;13431;51.352;6.412;2022-12-31T15:00:52;7.22;;;2.30;;
25535;SDS011;13431;51.352;6.412;2022-12-31T15:03:25;3.53;;;1.88;;
25535;SDS011;13431;51.352;6.412;2022-12-31T15:06:26;4.25;;;1.88;;
25535;SDS011;13431;51.352;6.412;2022-12-31T15:12:39;1.98;;;1.73;;
25535;SDS011;13431;51.352;6.412;2022-12-31T15:18:30;2.80;;;1.60;;
25535;SDS011;13431;51.352;6.412;2022-12-31T15:21:24;2.17;;;1.45;;
25535;SDS011;13431;51.352;6.412;2022-12-31T15:24:19;5.00;;;1.90;;
25535;SDS011;13431;51.352;6.412;2022-12-31T15:26:59;4.03;;;1.50;;
25535;SDS011;13431;51.352;6.412;2022-12-31T15:29:30;4.80;;;2.22;;
25535;SDS011;13431;51.352;6.412;2022-12-31T15:32:00;3.15;;;1.63;;
25535;SDS011;13431;51.352;6.412;2022-12-31T15:37:00;6.85;;;1.80;;
25535;SDS011;13431;51.352;6.412;2022-12-31T15:41:57;4.22;;;2.10;;
25535;SDS011;13431;51.352;6.412;2022-12-31T15:44:55;4.57;;;2.20;;
25535;SDS011;13431;51.352;6.412;2022-12-31T15:47:29;5.15;;;1.77;;
25535;SDS011;13431;51.352;6.412;2022-12-31T15:50:03;4.72;;;1.75;;
25535;SDS011;13431;51.352;6.412;2022-12-31T15:52:42;3.85;;;1.90;;
25535;SDS011;13431;51.352;6.412;2022-12-31T15:55:19;2.80;;;1.95;;
25535;SDS011;13431;51.352;6.412;2022-12-31T15:57:48;2.28;;;1.98;;
25535;SDS011;13431;51.352;6.412;2022-12-31T16:00:17;2.83;;;2.25;;
25535;SDS011;13431;51.352;6.412;2022-12-31T16:02:48;3.40;;;2.00;;
25535;SDS011;13431;51.352;6.412;2022-12-31T16:05:19;4.72;;;2.03;;
25535;SDS011;13431;51.352;6.412;2022-12-31T16:07:56;3.75;;;2.72;;
25535;SDS011;13431;51.352;6.412;2022-12-31T16:10:29;3.00;;;1.80;;
25535;SDS011;13431;51.352;6.412;2022-12-31T16:12:58;5.82;;;2.60;;
25535;SDS011;13431;51.352;6.412;2022-12-31T16:15:27;5.68;;;3.80;;
25535;SDS011;13431;51.352;6.412;2022-12-31T16:18:00;3.40;;;2.28;;
25535;SDS011;13431;51.352;6.412;2022-12-31T16:20:31;5.72;;;2.08;;
25535;SDS011;13431;51.352;6.412;2022-12-31T16:23:00;4.43;;;1.75;;
25535;SDS011;13431;51.352;6.412;2022-12-31T16:25:30;2.55;;;1.60;;
25535;SDS011;13431;51.352;6.412;2022-12-31T16:27:59;2.40;;;1.50;;
25535;SDS011;13431;51.352;6.412;2022-12-31T16:30:31;2.03;;;1.55;;
25535;SDS011;13431;51.352;6.412;2022-12-31T16:33:04;3.28;;;1.92;;
25535;SDS011;13431;51.352;6.412;2022-12-31T16:35:36;2.33;;;1.70;;
25535;SDS011;13431;51.352;6.412;2022-12-31T16:40:42;4.28;;;2.15;;
25535;SDS011;13431;51.352;6.412;2022-12-31T16:46:09;3.40;;;1.92;;
25535;SDS011;13431;51.352;6.412;2022-12-31T16:48:44;2.90;;;1.70;;
25535;SDS011;13431;51.352;6.412;2022-12-31T16:51:31;2.72;;;1.65;;
25535;SDS011;13431;51.352;6.412;2022-12-31T16:54:02;2.90;;;1.90;;
25535;SDS011;13431;51.352;6.412;2022-12-31T16:56:32;2.92;;;1.88;;
25535;SDS011;13431;51.352;6.412;2022-12-31T16:59:03;3.97;;;1.60;;
25535;SDS011;13431;51.352;6.412;2022-12-31T17:01:40;2.95;;;1.58;;
25535;SDS011;13431;51.352;6.412;2022-12-31T17:04:08;3.78;;;2.00;;
25535;SDS011;13431;51.352;6.412;2022-12-31T17:06:38;2.53;;;1.67;;
25535;SDS011;13431;51.352;6.412;2022-12-31T17:14:14;3.72;;;1.80;;
25535;SDS011;13431;51.352;6.412;2022-12-31T17:16:51;4.75;;;2.92;;
25535;SDS011;13431;51.352;6.412;2022-12-31T17:19:43;4.13;;;2.08;;
25535;SDS011;13431;51.352;6.412;2022-12-31T17:22:22;3.15;;;2.15;;
25535;SDS011;13431;51.352;6.412;2022-12-31T17:27:31;3.58;;;2.03;;
25535;SDS011;13431;51.352;6.412;2022-12-31T17:35:34;5.13;;;2.65;;
25535;SDS011;13431;51.352;6.412;2022-12-31T17:43:19;6.50;;;2.30;;
25535;SDS011;13431;51.352;6.412;2022-12-31T17:45:51;5.88;;;2.35;;
25535;SDS011;13431;51.352;6.412;2022-12-31T17:48:22;3.15;;;2.00;;
25535;SDS011;13431;51.352;6.412;2022-12-31T17:50:54;8.57;;;3.83;;
25535;SDS011;13431;51.352;6.412;2022-12-31T17:53:23;9.60;;;5.47;;
25535;SDS011;13431;51.352;6.412;2022-12-31T17:55:52;6.22;;;2.30;;
25535;SDS011;13431;51.352;6.412;2022-12-31T18:00:56;4.45;;;2.65;;
25535;SDS011;13431;51.352;6.412;2022-12-31T18:03:24;5.55;;;2.30;;
25535;SDS011;13431;51.352;6.412;2022-12-31T18:05:52;4.50;;;2.83;;
25535;SDS011;13431;51.352;6.412;2022-12-31T18:08:19;14.32;;;13.00;;
25535;SDS011;13431;51.352;6.412;2022-12-31T18:10:46;4.93;;;2.80;;
25535;SDS011;13431;51.352;6.412;2022-12-31T18:13:23;3.30;;;2.05;;
25535;SDS011;13431;51.352;6.412;2022-12-31T18:15:52;5.25;;;2.83;;
25535;SDS011;13431;51.352;6.412;2022-12-31T18:18:31;7.18;;;2.88;;
25535;SDS011;13431;51.352;6.412;2022-12-31T18:21:02;6.07;;;2.38;;
25535;SDS011;13431;51.352;6.412;2022-12-31T18:23:42;5.13;;;2.28;;
25535;SDS011;13431;51.352;6.412;2022-12-31T18:26:13;4.97;;;1.73;;
25535;SDS011;13431;51.352;6.412;2022-12-31T18:28:41;5.15;;;2.13;;
25535;SDS011;13431;51.352;6.412;2022-12-31T18:31:12;4.07;;;2.00;;
25535;SDS011;13431;51.352;6.412;2022-12-31T18:33:42;5.35;;;3.20;;
25535;SDS011;13431;51.352;6.412;2022-12-31T18:36:11;7.03;;;2.67;;
25535;SDS011;13431;51.352;6.412;2022-12-31T18:38:39;4.93;;;2.45;;
25535;SDS011;13431;51.352;6.412;2022-12-31T18:41:13;5.18;;;2.40;;
25535;SDS011;13431;51.352;6.412;2022-12-31T18:43:54;10.32;;;3.08;;
25535;SDS011;13431;51.352;6.412;2022-12-31T18:46:23;6.35;;;2.35;;
25535;SDS011;13431;51.352;6.412;2022-12-31T18:48:50;5.68;;;2.53;;
25535;SDS011;13431;51.352;6.412;2022-12-31T18:51:19;4.35;;;2.15;;
25535;SDS011;13431;51.352;6.412;2022-12-31T18:53:57;4.07;;;2.10;;
25535;SDS011;13431;51.352;6.412;2022-12-31T18:56:25;6.18;;;1.98;;
25535;SDS011;13431;51.352;6.412;2022-12-31T18:58:52;4.55;;;2.15;;
25535;SDS011;13431;51.352;6.412;2022-12-31T19:03:50;3.10;;;2.13;;
25535;SDS011;13431;51.352;6.412;2022-12-31T19:06:17;5.20;;;1.80;;
25535;SDS011;13431;51.352;6.412;2022-12-31T19:08:45;5.25;;;2.35;;
25535;SDS011;13431;51.352;6.412;2022-12-31T19:11:13;4.90;;;1.77;;
25535;SDS011;13431;51.352;6.412;2022-12-31T19:13:40;8.68;;;2.45;;
25535;SDS011;13431;51.352;6.412;2022-12-31T19:16:08;7.82;;;3.05;;
25535;SDS011;13431;51.352;6.412;2022-12-31T19:18:36;8.45;;;2.65;;
25535;SDS011;13431;51.352;6.412;2022-12-31T19:21:03;10.45;;;2.15;;
25535;SDS011;13431;51.352;6.412;2022-12-31T19:23:30;3.92;;;2.13;;
25535;SDS011;13431;51.352;6.412;2022-12-31T19:25:58;5.15;;;1.60;;
25535;SDS011;13431;51.352;6.412;2022-12-31T19:28:25;4.38;;;2.33;;
25535;SDS011;13431;51.352;6.412;2022-12-31T19:30:54;6.93;;;1.80;;
25535;SDS011;13431;51.352;6.412;2022-12-31T19:33:21;7.60;;;2.50;;
25535;SDS011;13431;51.352;6.412;2022-12-31T19:35:48;3.67;;;1.92;;
25535;SDS011;13431;51.352;6.412;2022-12-31T19:40:48;5.47;;;1.92;;
25535;SDS011;13431;51.352;6.412;2022-12-31T19:43:17;2.20;;;1.70;;
25535;SDS011;13431;51.352;6.412;2022-12-31T19:45:46;7.40;;;2.63;;
25535;SDS011;13431;51.352;6.412;2022-12-31T19:48:21;4.85;;;2.92;;
25535;SDS011;13431;51.352;6.412;2022-12-31T19:50:58;14.50;;;3.53;;
25535;SDS011;13431;51.352;6.412;2022-12-31T19:53:26;6.78;;;2.50;;
25535;SDS011;13431;51.352;6.412;2022-12-31T19:55:53;8.05;;;2.85;;
25535;SDS011;13431;51.352;6.412;2022-12-31T19:58:22;6.50;;;2.25;;
25535;SDS011;13431;51.352;6.412;2022-12-31T20:00:54;5.50;;;1.95;;
25535;SDS011;13431;51.352;6.412;2022-12-31T20:03:28;4.18;;;2.03;;
25535;SDS011;13431;51.352;6.412;2022-12-31T20:06:02;4.25;;;1.92;;
25535;SDS011;13431;51.352;6.412;2022-12-31T20:08:32;4.13;;;1.80;;
25535;SDS011;13431;51.352;6.412;2022-12-31T20:11:10;8.50;;;2.95;;
25535;SDS011;13431;51.352;6.412;2022-12-31T20:13:43;9.52;;;2.33;;
25535;SDS011;13431;51.352;6.412;2022-12-31T20:16:12;5.57;;;2.13;;
25535;SDS011;13431;51.352;6.412;2022-12-31T20:18:42;6.15;;;2.10;;
25535;SDS011;13431;51.352;6.412;2022-12-31T20:21:11;4.40;;;2.03;;